Time;durP1;ratioP1;P1;durP2;ratioP2;P2;SDS_P1;SDS_P2;PMS_P1;PMS_P2;Temp;Humidity;BMP_temperature;BMP_pressure;BME280_temperature;BME280_humidity;BME280_pressure;Samples;Min_cycle;Max_cycle;Signal;HPM_P1;HPM_P2
2022/01/29 00:01:52;;;;;;;9.10;2.90;;;;;;;-2.74;81.84;100245.48;434387;1271;141770;-62
2022/01/29 00:11:58;;;;;;;4.30;2.40;;;;;;;-2.88;81.91;100241.70;447265;1271;142752;-70
2022/01/29 00:22:05;;;;;;;6.90;2.60;;;;;;;-3.01;82.29;100248.36;447308;1271;144600;-71
2022/01/29 00:32:12;;;;;;;4.90;3.10;;;;;;;-3.09;82.57;100250.05;446607;1271;144339;-69
2022/01/29 00:42:18;;;;;;;7.00;3.30;;;;;;;-3.13;82.78;100251.41;447465;1271;142189;-70
2022/01/29 00:52:24;;;;;;;7.20;4.10;;;;;;;-3.15;83.00;100262.02;447494;1271;142175;-69
2022/01/29 01:02:30;;;;;;;7.00;3.20;;;;;;;-3.13;83.27;100269.05;446632;1271;142272;-63
2022/01/29 01:12:37;;;;;;;6.60;3.10;;;;;;;-3.02;83.54;100260.52;440093;1270;142781;-60
2022/01/29 01:22:43;;;;;;;6.20;3.30;;;;;;;-2.97;83.49;100257.27;432768;1271;141557;-60
2022/01/29 01:32:49;;;;;;;4.70;3.00;;;;;;;-3.02;83.59;100247.85;447306;1270;143392;-62
2022/01/29 01:43:00;;;;;;;4.40;2.00;;;;;;;-3.15;83.46;100235.48;447408;1271;143760;-67
2022/01/29 01:53:06;;;;;;;5.80;2.40;;;;;;;-3.31;83.72;100229.79;446511;1269;143491;-66
2022/01/29 02:03:13;;;;;;;3.10;2.00;;;;;;;-3.50;83.91;100224.41;443656;1270;143264;-66
2022/01/29 02:13:17;;;;;;;;;;;;;;;-3.68;84.19;100208.08;435154;1270;141745;-69
2022/01/29 02:23:23;;;;;;;5.60;3.10;;;;;;;-3.81;84.46;100202.20;446966;1270;128985;-69
2022/01/29 02:33:30;;;;;;;6.20;2.80;;;;;;;-3.75;84.82;100197.61;440181;1271;143052;-68
2022/01/29 02:43:42;;;;;;;5.70;3.50;;;;;;;-3.66;84.89;100190.98;447371;1271;141433;-64
2022/01/29 02:53:49;;;;;;;9.00;5.30;;;;;;;-3.62;85.00;100175.75;447287;1270;142500;-64
2022/01/29 03:03:53;;;;;;;;;;;;;;;-3.68;84.78;100179.33;446857;1273;152249;-65
2022/01/29 03:13:59;;;;;;;5.40;3.10;;;;;;;-3.79;84.95;100174.33;446870;1271;128264;-65
2022/01/29 03:24:05;;;;;;;8.40;4.90;;;;;;;-3.90;85.10;100167.26;446863;1273;142025;-63
2022/01/29 03:34:09;;;;;;;;;;;;;;;-3.98;85.44;100159.01;443173;1271;143013;-64
2022/01/29 03:44:15;;;;;;;6.90;4.00;;;;;;;-4.04;85.59;100150.09;429922;1273;129091;-64
2022/01/29 03:54:22;;;;;;;9.10;3.20;;;;;;;-4.10;85.90;100143.56;445046;1273;141930;-64
2022/01/29 04:04:27;;;;;;;7.50;4.10;;;;;;;-4.07;85.89;100147.00;446925;1271;141845;-64
2022/01/29 04:14:38;;;;;;;6.60;4.30;;;;;;;-4.01;86.09;100145.99;446173;1272;141871;-64
2022/01/29 04:24:43;;;;;;;8.60;5.00;;;;;;;-4.00;86.23;100137.61;447200;1271;142251;-64
2022/01/29 04:34:49;;;;;;;7.80;4.50;;;;;;;-3.91;86.25;100121.41;441553;1271;143432;-64
2022/01/29 04:44:55;;;;;;;11.40;4.90;;;;;;;-3.81;86.37;100115.80;429875;1271;141961;-63
2022/01/29 04:55:01;;;;;;;19.10;4.30;;;;;;;-3.77;86.33;100127.61;432757;1271;143325;-64
2022/01/29 05:05:08;;;;;;;8.40;4.30;;;;;;;-3.80;86.42;100123.50;445049;1272;142865;-66
2022/01/29 05:15:22;;;;;;;8.30;5.00;;;;;;;-3.86;86.28;100118.86;439791;1271;142077;-65
2022/01/29 05:35:51;;;;;;;15.50;6.40;;;;;;;-3.51;86.67;100098.92;447500;1269;142755;-65
2022/01/29 05:45:57;;;;;;;12.70;4.80;;;;;;;-3.53;86.43;100095.00;447463;1270;141811;-64
2022/01/29 05:56:04;;;;;;;8.20;5.10;;;;;;;-3.57;86.43;100069.83;446763;1269;142837;-64
2022/01/29 06:06:08;;;;;;;;;;;;;;;-3.61;86.49;100040.38;439808;1270;143648;-65
2022/01/29 06:16:14;;;;;;;9.50;5.60;;;;;;;-3.71;86.62;100035.06;447709;1271;129221;-65
2022/01/29 06:26:20;;;;;;;13.00;5.20;;;;;;;-3.78;86.90;100036.08;440433;1270;142694;-65
2022/01/29 06:36:26;;;;;;;13.50;7.50;;;;;;;-3.81;87.10;100042.40;442299;1271;142093;-64
2022/01/29 06:46:32;;;;;;;17.30;6.30;;;;;;;-3.74;87.37;100035.91;444176;1270;141885;-64
2022/01/29 06:56:38;;;;;;;16.70;7.40;;;;;;;-3.54;87.45;100011.97;446453;1271;142192;-64
2022/01/29 07:06:44;;;;;;;13.30;7.70;;;;;;;-3.28;87.71;99998.79;433178;1271;141416;-64
2022/01/29 07:16:50;;;;;;;11.80;7.80;;;;;;;-2.83;87.81;99988.44;434733;1273;162486;-65
2022/01/29 07:26:56;;;;;;;16.20;7.10;;;;;;;-1.94;87.35;99979.60;442995;1270;142126;-64
2022/01/29 07:37:02;;;;;;;19.00;7.80;;;;;;;-0.03;86.34;99960.58;444373;1270;143319;-64
2022/01/29 07:47:09;;;;;;;14.60;8.30;;;;;;;2.53;84.59;99931.67;446663;1270;145500;-64
2022/01/29 07:57:15;;;;;;;14.50;7.70;;;;;;;3.14;81.55;99919.52;446956;1273;141396;-65
2022/01/29 08:07:20;;;;;;;17.90;9.00;;;;;;;2.05;80.72;99909.85;447439;1269;142523;-64
2022/01/29 08:17:27;;;;;;;18.60;9.50;;;;;;;1.26;81.35;99895.54;446676;1270;141857;-66
2022/01/29 08:27:33;;;;;;;13.80;7.00;;;;;;;0.86;81.80;99874.95;447014;1271;142037;-67
2022/01/29 08:37:39;;;;;;;15.90;7.60;;;;;;;0.77;82.18;99854.79;433961;1273;142405;-64
2022/01/29 08:47:45;;;;;;;17.50;8.10;;;;;;;0.71;82.20;99844.22;441206;1273;142314;-65
2022/01/29 08:57:50;;;;;;;19.00;9.70;;;;;;;0.97;82.36;99835.42;447044;1272;141832;-65
2022/01/29 09:07:56;;;;;;;21.00;9.70;;;;;;;1.33;82.15;99828.97;446446;1271;141467;-69
2022/01/29 09:18:03;;;;;;;25.50;11.70;;;;;;;3.20;81.15;99801.50;445127;1270;141317;-64
2022/01/29 09:28:10;;;;;;;17.20;7.10;;;;;;;3.47;79.53;99789.30;444426;1271;142138;-65
2022/01/29 09:38:15;;;;;;;20.10;7.90;;;;;;;3.12;79.07;99770.46;446507;1272;142121;-66
2022/01/29 09:48:24;;;;;;;14.60;7.70;;;;;;;3.13;79.16;99758.86;447241;1272;142562;-64
2022/01/29 09:58:30;;;;;;;27.80;7.80;;;;;;;2.82;78.66;99759.55;447300;1270;140823;-65
2022/01/29 10:08:45;;;;;;;15.80;7.70;;;;;;;2.95;78.63;99743.80;446188;1270;143492;-66
2022/01/29 10:19:01;;;;;;;16.00;6.60;;;;;;;2.78;78.57;99728.41;439562;1271;141833;-64
2022/01/29 10:29:09;;;;;;;17.10;6.90;;;;;;;2.21;78.87;99700.28;445361;1270;141175;-64
2022/01/29 10:39:28;;;;;;;20.30;8.70;;;;;;;1.78;79.15;99673.13;447002;1270;235903;-65
2022/01/29 10:49:37;;;;;;;13.60;6.70;;;;;;;1.63;79.55;99645.23;445256;1271;143337;-62
2022/01/29 10:59:50;;;;;;;11.90;7.70;;;;;;;1.61;79.62;99620.59;431935;1271;141715;-64
2022/01/29 11:09:57;;;;;;;16.40;7.20;;;;;;;1.50;79.73;99591.20;447040;1270;142374;-65
2022/01/29 11:20:04;;;;;;;12.60;6.90;;;;;;;1.34;79.89;99563.66;446514;1270;142659;-65
2022/01/29 11:30:15;;;;;;;16.20;8.10;;;;;;;1.30;79.93;99544.30;439082;1271;146602;-63
2022/01/29 11:40:25;;;;;;;16.10;7.60;;;;;;;1.17;80.26;99515.49;446844;1273;143252;-63
2022/01/29 11:50:48;;;;;;;14.60;7.20;;;;;;;1.06;80.69;99494.03;446374;1271;143792;-64
2022/01/29 12:00:56;;;;;;;21.20;9.80;;;;;;;0.91;81.54;99472.70;432227;1271;142967;-66
2022/01/29 12:11:11;;;;;;;13.80;9.50;;;;;;;0.96;82.09;99439.66;446508;1270;142918;-62
2022/01/29 12:21:24;;;;;;;17.70;10.40;;;;;;;0.99;82.58;99406.84;438800;1270;141080;-62
2022/01/29 12:31:30;;;;;;;13.70;9.10;;;;;;;1.01;82.65;99381.09;446790;1273;184270;-64
2022/01/29 12:41:39;;;;;;;15.70;10.20;;;;;;;0.93;82.87;99362.18;446457;1271;143395;-62
2022/01/29 12:51:55;;;;;;;15.00;10.10;;;;;;;0.88;83.12;99334.92;447110;1271;143703;-63
2022/01/29 13:02:05;;;;;;;15.00;9.40;;;;;;;0.83;83.26;99308.50;445912;1272;142650;-60
2022/01/29 13:12:15;;;;;;;13.30;9.30;;;;;;;0.58;83.35;99280.08;446955;1271;142154;-68
2022/01/29 13:22:21;;;;;;;15.00;9.50;;;;;;;0.37;83.96;99252.08;447360;1270;142350;-67
2022/01/29 13:32:31;;;;;;;14.40;9.30;;;;;;;0.27;84.42;99223.59;435965;1272;142086;-66
2022/01/29 13:42:52;;;;;;;10.50;9.20;;;;;;;0.09;84.92;99207.55;443440;1271;142261;-66
2022/01/29 13:53:08;;;;;;;12.00;8.60;;;;;;;-0.06;85.52;99168.36;446491;1270;142761;-65
2022/01/29 14:03:14;;;;;;;12.50;11.20;;;;;;;-0.12;85.78;99139.45;447057;1271;143812;-67
2022/01/29 14:13:20;;;;;;;15.40;11.00;;;;;;;-0.19;86.01;99106.10;432991;1271;142205;-67
2022/01/29 14:23:25;;;;;;;13.80;11.10;;;;;;;-0.27;86.39;99086.52;445775;1270;143103;-66
2022/01/29 14:33:51;;;;;;;15.70;10.30;;;;;;;-0.33;86.76;99055.73;433213;1271;142062;-63
2022/01/29 14:43:57;;;;;;;16.20;10.20;;;;;;;-0.39;87.00;99022.53;429511;1271;143551;-65
2022/01/29 14:54:04;;;;;;;14.20;8.80;;;;;;;-0.47;87.26;99003.67;443661;1271;143077;-65
2022/01/29 15:04:10;;;;;;;14.50;8.70;;;;;;;-0.49;87.50;98973.61;430564;1271;142064;-66
2022/01/29 15:14:15;;;;;;;;;;;;;;;-0.46;87.91;98954.27;430556;1271;142416;-66
2022/01/29 15:24:23;;;;;;;9.00;7.20;;;;;;;-0.46;88.14;98957.88;447352;1271;131919;-67
2022/01/29 15:34:28;;;;;;;10.10;6.70;;;;;;;-0.49;88.36;98943.89;435246;1271;142211;-61
2022/01/29 15:44:34;;;;;;;10.90;8.00;;;;;;;-0.48;88.77;98916.52;441161;1271;143355;-62
2022/01/29 15:54:41;;;;;;;18.20;11.50;;;;;;;-0.41;88.53;98868.85;446795;1273;144121;-63
2022/01/29 16:04:47;;;;;;;11.10;7.80;;;;;;;-0.34;88.91;98836.46;447005;1271;142406;-63
2022/01/29 16:14:53;;;;;;;8.10;6.00;;;;;;;-0.27;89.14;98814.58;442428;1273;209826;-60
2022/01/29 16:24:59;;;;;;;10.80;5.80;;;;;;;-0.25;89.24;98792.15;430498;1271;142051;-59
2022/01/29 16:35:07;;;;;;;9.10;6.20;;;;;;;-0.27;89.50;98767.79;430530;1271;144597;-70
2022/01/29 16:45:14;;;;;;;11.40;7.00;;;;;;;-0.20;89.91;98725.42;437716;1270;182673;-71
2022/01/29 16:55:20;;;;;;;10.00;7.10;;;;;;;-0.09;89.83;98716.96;438713;1271;141406;-74
2022/01/29 17:05:26;;;;;;;12.30;9.10;;;;;;;0.00;90.27;98682.75;433250;1273;141625;-72
2022/01/29 17:15:33;;;;;;;9.80;6.50;;;;;;;0.05;90.32;98646.92;433756;1271;142112;-71
2022/01/29 17:25:39;;;;;;;11.40;7.50;;;;;;;0.10;90.57;98620.10;447465;1270;143949;-70
2022/01/29 17:35:45;;;;;;;9.50;6.50;;;;;;;0.18;90.51;98612.40;438088;1271;144064;-70
2022/01/29 17:45:52;;;;;;;9.80;7.10;;;;;;;0.23;90.67;98582.61;433990;1273;141201;-70
2022/01/29 17:55:58;;;;;;;8.20;6.90;;;;;;;0.30;91.04;98547.59;441312;1270;142566;-68
2022/01/29 18:06:04;;;;;;;8.60;7.60;;;;;;;0.40;91.29;98537.56;431674;1271;142369;-71
2022/01/29 18:16:10;;;;;;;12.40;8.40;;;;;;;0.47;91.59;98515.26;439610;1271;140585;-71
2022/01/29 18:26:37;;;;;;;14.70;11.10;;;;;;;0.53;91.73;98483.33;430289;1269;142461;-69
2022/01/29 18:36:43;;;;;;;14.70;10.30;;;;;;;0.56;92.09;98455.46;433579;1271;143150;-70
2022/01/29 18:46:49;;;;;;;14.80;10.00;;;;;;;0.61;92.15;98445.77;436078;1271;143445;-68
2022/01/29 18:56:55;;;;;;;17.90;11.50;;;;;;;0.68;92.25;98418.10;433679;1270;143254;-70
2022/01/29 19:07:01;;;;;;;17.90;11.40;;;;;;;0.74;92.45;98387.37;433540;1270;143094;-70
2022/01/29 19:17:09;;;;;;;17.50;13.10;;;;;;;0.82;92.68;98353.96;429441;1271;142951;-68
2022/01/29 19:27:15;;;;;;;12.10;9.60;;;;;;;0.93;92.77;98336.77;443981;1269;143542;-69
2022/01/29 19:37:21;;;;;;;13.10;10.10;;;;;;;1.05;92.84;98302.08;430925;1270;141513;-69
2022/01/29 19:47:27;;;;;;;13.40;10.50;;;;;;;1.15;93.00;98254.09;442500;1270;144729;-71
2022/01/29 19:57:33;;;;;;;12.60;9.80;;;;;;;1.26;93.04;98243.21;438771;1270;141672;-70
2022/01/29 20:07:40;;;;;;;10.40;8.90;;;;;;;1.32;93.06;98226.56;447389;1270;141942;-70
2022/01/29 20:17:46;;;;;;;9.80;8.20;;;;;;;1.36;93.12;98197.73;440353;1271;142557;-62
2022/01/29 20:27:53;;;;;;;12.30;9.40;;;;;;;1.40;93.18;98167.20;436242;1270;143102;-61
2022/01/29 20:37:59;;;;;;;10.70;8.00;;;;;;;1.46;93.52;98167.42;446209;1270;142345;-61
2022/01/29 20:48:05;;;;;;;11.20;9.10;;;;;;;1.55;93.60;98148.52;438138;1271;142114;-60
2022/01/29 20:58:12;;;;;;;9.90;7.40;;;;;;;1.65;93.71;98131.45;447351;1270;142869;-61
2022/01/29 21:08:18;;;;;;;12.60;9.00;;;;;;;1.82;94.10;98100.41;432361;1273;142224;-61
2022/01/29 21:18:25;;;;;;;9.00;7.60;;;;;;;2.00;94.24;98073.42;430965;1270;141867;-60
2022/01/29 21:28:30;;;;;;;10.70;8.50;;;;;;;2.22;94.30;98070.71;440520;1270;142134;-62
2022/01/29 21:38:38;;;;;;;10.60;9.10;;;;;;;2.38;94.04;98025.98;438078;1270;142090;-61
2022/01/29 21:48:43;;;;;;;11.10;8.80;;;;;;;2.55;93.90;98001.36;437049;1270;141713;-60
2022/01/29 21:58:49;;;;;;;13.10;8.70;;;;;;;2.71;93.96;97968.66;439409;1270;142828;-58
2022/01/29 22:08:56;;;;;;;11.80;9.10;;;;;;;2.83;93.79;97941.03;434248;1270;141846;-60
2022/01/29 22:19:04;;;;;;;13.50;9.70;;;;;;;2.87;93.54;97913.15;445110;1270;141239;-61
2022/01/29 22:29:10;;;;;;;11.40;9.60;;;;;;;2.92;93.56;97888.61;438158;1270;142304;-59
2022/01/29 22:39:21;;;;;;;10.50;8.50;;;;;;;2.93;93.29;97879.39;438231;1270;202866;-60
2022/01/29 22:49:27;;;;;;;11.40;7.90;;;;;;;2.95;93.54;97847.82;446268;1270;142420;-61
2022/01/29 22:59:33;;;;;;;8.30;7.20;;;;;;;3.04;93.75;97830.02;442005;1270;142599;-60
2022/01/29 23:09:51;;;;;;;7.90;6.80;;;;;;;3.05;93.68;97824.91;437323;1270;141617;-61
2022/01/29 23:20:07;;;;;;;8.60;6.50;;;;;;;3.02;93.66;97824.27;433346;1270;142648;-62
2022/01/29 23:30:14;;;;;;;3.80;3.50;;;;;;;3.05;94.03;97809.56;443979;1270;141653;-58
2022/01/29 23:40:22;;;;;;;2.20;1.90;;;;;;;3.57;94.70;97807.02;431873;1270;146315;-60
2022/01/29 23:50:29;;;;;;;3.50;1.90;;;;;;;4.06;93.92;97795.41;439843;1271;144179;-60
